Time;durP1;ratioP1;P1;durP2;ratioP2;P2;SDS_P1;SDS_P2;PMS_P1;PMS_P2;Temp;Humidity;BMP_temperature;BMP_pressure;BME280_temperature;BME280_humidity;BME280_pressure;Samples;Min_cycle;Max_cycle;Signal;HPM_P1;HPM_P2
2023/10/10 00:02:19;;;;;;;58.00;29.60;;;;;;;15.85;100.00;102057.09;5049688;28;20037;-64
2023/10/10 00:04:49;;;;;;;58.10;31.67;;;;;;;15.76;100.00;102060.97;5048006;28;20021;-63
2023/10/10 00:07:15;;;;;;;48.45;29.65;;;;;;;15.71;100.00;102065.59;5049105;28;20017;-62
2023/10/10 00:09:44;;;;;;;55.17;30.48;;;;;;;15.66;100.00;102065.75;5049137;28;20032;-62
2023/10/10 00:12:13;;;;;;;52.80;29.85;;;;;;;15.59;100.00;102057.13;5049452;28;20032;-63
2023/10/10 00:14:38;;;;;;;;;;;;;;;15.58;100.00;102062.47;5049388;28;20037;-63
2023/10/10 00:17:07;;;;;;;60.75;30.85;;;;;;;15.53;100.00;102062.63;5048674;28;19924;-62
2023/10/10 00:19:37;;;;;;;;;;;;;;;15.52;100.00;102071.53;5049236;28;20060;-61
2023/10/10 00:22:05;;;;;;;54.63;29.60;;;;;;;15.49;100.00;102064.56;5049055;28;19916;-63
2023/10/10 00:24:31;;;;;;;65.10;32.10;;;;;;;15.46;100.00;102066.44;5049327;28;20123;-63
2023/10/10 00:27:15;;;;;;;57.00;31.92;;;;;;;15.45;100.00;102064.72;5048552;28;20020;-64
2023/10/10 00:29:44;;;;;;;59.17;32.58;;;;;;;15.42;100.00;102060.38;5033339;28;20021;-62
2023/10/10 00:32:16;;;;;;;65.80;34.25;;;;;;;15.42;100.00;102052.41;5048364;28;20023;-63
2023/10/10 00:34:48;;;;;;;64.13;33.63;;;;;;;15.41;100.00;102054.19;5047789;28;20029;-62
2023/10/10 00:37:25;;;;;;;66.93;32.83;;;;;;;15.42;100.00;102047.09;5048304;28;20029;-62
2023/10/10 00:39:53;;;;;;;66.03;33.63;;;;;;;15.41;100.00;102048.88;5053596;28;20078;-63
2023/10/10 00:42:36;;;;;;;67.43;35.28;;;;;;;15.41;100.00;102042.69;5068778;28;20025;-63
2023/10/10 00:45:12;;;;;;;62.90;32.70;;;;;;;15.41;100.00;102040.03;5068691;28;20530;-61
2023/10/10 00:47:42;;;;;;;68.60;34.15;;;;;;;15.40;100.00;102043.63;5068192;28;20059;-65
2023/10/10 00:50:14;;;;;;;65.00;32.33;;;;;;;15.37;100.00;102036.63;5050432;28;20028;-62
2023/10/10 00:52:41;;;;;;;73.68;34.15;;;;;;;15.35;100.00;102033.16;5050684;28;20397;-64
2023/10/10 00:55:07;;;;;;;64.30;32.53;;;;;;;15.37;100.00;102033.97;5050586;28;20020;-63
2023/10/10 00:57:35;;;;;;;64.97;32.42;;;;;;;15.35;100.00;102024.34;5067704;28;20017;-63
2023/10/10 01:00:07;;;;;;;71.07;35.67;;;;;;;15.35;100.00;102030.50;5068715;28;20028;-63
2023/10/10 01:02:34;;;;;;;67.25;33.85;;;;;;;15.33;100.00;102021.75;5068661;28;20467;-62
2023/10/10 01:05:05;;;;;;;76.85;36.30;;;;;;;15.32;100.00;102027.94;5067935;28;20078;-62
2023/10/10 01:07:34;;;;;;;70.55;34.47;;;;;;;15.31;100.00;102030.66;5068503;28;20027;-63
2023/10/10 01:10:11;;;;;;;63.67;31.90;;;;;;;15.28;100.00;102023.69;5068540;28;20028;-63
2023/10/10 01:12:36;;;;;;;62.30;32.22;;;;;;;15.22;100.00;102015.91;5132112;22;20060;-62
2023/10/10 01:15:16;;;;;;;62.25;31.38;;;;;;;15.20;100.00;102017.78;5048230;28;20025;-61
2023/10/10 01:17:43;;;;;;;65.15;31.70;;;;;;;15.21;100.00;102016.84;5048199;28;20048;-62
2023/10/10 01:20:19;;;;;;;69.90;35.35;;;;;;;15.22;100.00;102008.84;5047640;28;20035;-63
2023/10/10 01:22:47;;;;;;;63.47;31.80;;;;;;;15.21;100.00;102012.41;5031283;28;20108;-61
2023/10/10 01:28:05;;;;;;;65.53;34.78;;;;;;;15.21;100.00;102014.19;5048861;28;20033;-61
2023/10/10 01:30:44;;;;;;;70.47;33.47;;;;;;;15.16;100.00;102017.88;5048330;28;20183;-63
2023/10/10 01:33:22;;;;;;;74.53;36.47;;;;;;;15.16;100.00;102012.56;5047980;28;20017;-61
2023/10/10 01:35:58;;;;;;;66.55;33.67;;;;;;;15.19;100.00;102008.06;5047318;28;20486;-62
2023/10/10 01:38:32;;;;;;;78.35;35.78;;;;;;;15.20;100.00;102009.81;5047940;28;20028;-62
2023/10/10 01:40:58;;;;;;;79.22;37.42;;;;;;;15.20;100.00;102009.81;5048234;28;20086;-63
2023/10/10 01:43:24;;;;;;;70.43;34.22;;;;;;;15.18;100.00;102001.03;5047837;28;20104;-60
2023/10/10 01:46:08;;;;;;;70.68;32.95;;;;;;;15.14;100.00;101998.47;5047090;28;20033;-64
2023/10/10 01:48:43;;;;;;;69.45;33.33;;;;;;;15.12;100.00;101984.41;5047649;28;20155;-61
2023/10/10 01:51:09;;;;;;;88.35;37.08;;;;;;;15.11;100.00;101992.44;5047086;28;20033;-61
2023/10/10 01:53:40;;;;;;;71.53;33.45;;;;;;;15.08;100.00;101990.72;5047242;28;20025;-62
2023/10/10 01:56:07;;;;;;;62.90;32.13;;;;;;;15.07;100.00;101973.06;5047442;28;20040;-63
2023/10/10 01:58:36;;;;;;;68.30;33.65;;;;;;;15.08;100.00;101985.41;5047286;28;20028;-62
2023/10/10 02:01:18;;;;;;;78.68;35.05;;;;;;;15.10;100.00;101980.06;5047889;28;20025;-62
2023/10/10 02:03:46;;;;;;;79.28;36.55;;;;;;;15.10;100.00;101974.75;5048744;28;20028;-61
2023/10/10 02:06:15;;;;;;;73.63;35.33;;;;;;;15.09;100.00;101976.56;5051123;28;20032;-62
2023/10/10 02:08:41;;;;;;;77.43;35.92;;;;;;;15.08;100.00;101969.47;5051443;28;20494;-60
2023/10/10 02:11:08;;;;;;;87.20;36.58;;;;;;;15.07;100.00;101975.72;5051780;28;20024;-65
2023/10/10 02:13:37;;;;;;;80.47;39.00;;;;;;;15.04;100.00;101973.16;5051069;28;20048;-62
2023/10/10 02:16:06;;;;;;;88.47;37.35;;;;;;;15.03;100.00;101969.63;5051578;28;20577;-62
2023/10/10 02:18:39;;;;;;;88.60;37.58;;;;;;;15.06;100.00;101974.00;5052091;28;20111;-63
2023/10/10 02:21:15;;;;;;;88.22;38.85;;;;;;;15.05;100.00;101976.72;5050683;28;20029;-63
2023/10/10 02:23:44;;;;;;;84.07;36.72;;;;;;;15.01;100.00;101973.28;5051468;28;20120;-62
2023/10/10 02:26:35;;;;;;;84.90;37.60;;;;;;;14.97;100.00;101982.28;5051237;28;20501;-63
2023/10/10 02:32:12;;;;;;;91.80;38.20;;;;;;;14.93;100.00;101970.03;4969827;28;20039;-60
2023/10/10 02:34:38;;;;;;;93.18;40.63;;;;;;;14.92;100.00;101966.50;5037255;28;20052;-63
2023/10/10 02:37:41;;;;;;;97.25;39.97;;;;;;;14.93;100.00;101970.03;5051227;28;20025;-63
2023/10/10 02:40:14;;;;;;;110.43;45.55;;;;;;;14.97;100.00;101959.25;5050215;28;20546;-62
2023/10/10 02:42:40;;;;;;;114.40;44.10;;;;;;;14.97;100.00;101955.72;5035474;28;20025;-62
2023/10/10 02:45:06;;;;;;;101.95;41.97;;;;;;;14.98;100.00;101950.38;5050943;28;20464;-62
2023/10/10 02:47:32;;;;;;;106.47;42.30;;;;;;;15.00;100.00;101950.31;5050781;28;20032;-62
2023/10/10 02:50:12;;;;;;;92.03;39.63;;;;;;;15.02;100.00;101949.34;5032790;28;20020;-62
2023/10/10 02:52:45;;;;;;;95.63;40.42;;;;;;;15.03;100.00;101943.09;5050076;28;20025;-62
2023/10/10 02:55:15;;;;;;;90.03;38.95;;;;;;;15.06;100.00;101934.19;5050537;28;20029;-62
2023/10/10 02:57:41;;;;;;;129.60;43.20;;;;;;;15.11;100.00;101934.88;5050351;28;20104;-62
2023/10/10 03:00:27;;;;;;;187.27;45.13;;;;;;;15.08;100.00;101934.13;5050488;28;20427;-63
2023/10/10 03:02:58;;;;;;;129.35;43.92;;;;;;;15.14;100.00;101929.44;5049824;28;20105;-64
2023/10/10 03:05:43;;;;;;;94.15;38.92;;;;;;;15.15;100.00;101940.94;5049867;28;20028;-62
2023/10/10 03:08:18;;;;;;;105.18;39.88;;;;;;;15.15;100.00;101946.25;5050200;28;20020;-62
2023/10/10 03:10:46;;;;;;;114.82;42.35;;;;;;;15.13;100.00;101938.34;5050082;28;20021;-62
2023/10/10 03:13:27;;;;;;;104.00;41.83;;;;;;;15.12;100.00;101925.13;5050105;28;20045;-62
2023/10/10 03:15:56;;;;;;;117.25;43.42;;;;;;;15.11;100.00;101934.88;5049338;28;20115;-62
2023/10/10 03:18:29;;;;;;;109.20;41.40;;;;;;;15.11;100.00;101934.03;5032866;28;20456;-62
2023/10/10 03:23:43;;;;;;;136.48;48.33;;;;;;;15.14;100.00;101939.22;5049950;28;20031;-62
2023/10/10 03:26:18;;;;;;;115.57;44.70;;;;;;;15.19;100.00;101931.06;5050026;28;20033;-61
2023/10/10 03:28:47;;;;;;;150.18;49.78;;;;;;;15.19;100.00;101928.41;5049619;28;20032;-62
2023/10/10 03:36:23;;;;;;;127.10;49.00;;;;;;;15.20;100.00;101935.47;5048530;28;20037;-61
2023/10/10 05:25:12;;;;;;;108.70;52.45;;;;;;;14.50;100.00;101829.94;5046108;28;20392;-62
2023/10/10 05:27:41;;;;;;;107.82;53.58;;;;;;;14.45;100.00;101835.41;5042237;28;20032;-63
2023/10/10 05:30:25;;;;;;;109.30;52.40;;;;;;;14.42;100.00;101834.66;5046415;28;20028;-62
2023/10/10 05:33:04;;;;;;;116.95;51.08;;;;;;;14.38;100.00;101834.75;5046604;28;20029;-62
2023/10/10 05:35:32;;;;;;;106.13;51.47;;;;;;;14.34;100.00;101827.84;5045807;28;20027;-62
2023/10/10 05:38:01;;;;;;;105.28;49.53;;;;;;;14.35;100.00;101824.25;5047011;28;20021;-63
2023/10/10 05:40:27;;;;;;;110.65;54.30;;;;;;;14.37;100.00;101821.56;5045464;28;20025;-64
2023/10/10 05:42:53;;;;;;;115.10;51.85;;;;;;;14.35;100.00;101824.25;5045514;28;20017;-62
2023/10/10 05:45:19;;;;;;;99.65;48.83;;;;;;;14.31;100.00;101824.41;5046017;28;20055;-61
2023/10/10 05:47:44;;;;;;;92.95;47.65;;;;;;;14.31;100.00;101825.28;5045314;28;20055;-62
2023/10/10 05:50:10;;;;;;;120.07;53.72;;;;;;;14.27;100.00;101818.38;5026734;28;20024;-62
2023/10/10 05:52:38;;;;;;;101.43;47.60;;;;;;;14.23;100.00;101816.72;5041316;28;20044;-63
2023/10/10 05:55:10;;;;;;;110.68;50.63;;;;;;;14.26;100.00;101813.97;5045589;28;20463;-62
2023/10/10 05:57:39;;;;;;;101.35;47.35;;;;;;;14.23;100.00;101814.06;5038393;28;20047;-62
2023/10/10 06:00:10;;;;;;;108.65;50.97;;;;;;;14.23;100.00;101798.16;5045681;28;20017;-62
2023/10/10 06:02:42;;;;;;;109.50;50.85;;;;;;;14.26;100.00;101806.00;5045999;28;20029;-62
2023/10/10 06:05:09;;;;;;;109.63;50.85;;;;;;;14.27;100.00;101802.47;5045496;28;20013;-63
2023/10/10 06:07:37;;;;;;;106.00;47.53;;;;;;;14.27;100.00;101797.16;5046035;28;20029;-61
2023/10/10 06:10:06;;;;;;;102.70;50.17;;;;;;;14.28;100.00;101799.75;5046143;28;20100;-63
2023/10/10 06:12:33;;;;;;;120.20;52.47;;;;;;;14.29;100.00;101787.34;5046373;28;20045;-63
2023/10/10 06:15:05;;;;;;;119.45;53.72;;;;;;;14.29;100.00;101797.97;5046250;28;20029;-63
2023/10/10 06:17:33;;;;;;;120.40;53.40;;;;;;;14.38;100.00;101796.78;5046242;28;20444;-63
2023/10/10 06:19:59;;;;;;;112.07;51.92;;;;;;;14.43;100.00;101801.91;5045388;28;20131;-61
2023/10/10 06:22:25;;;;;;;122.32;55.72;;;;;;;14.47;100.00;101798.22;5025420;28;20101;-62
2023/10/10 06:24:57;;;;;;;122.93;56.38;;;;;;;14.48;100.00;101802.63;5025138;28;20040;-61
2023/10/10 06:27:29;;;;;;;118.13;53.65;;;;;;;14.55;100.00;101812.09;5025957;28;20033;-61
2023/10/10 06:30:00;;;;;;;121.53;55.72;;;;;;;14.54;100.00;101807.69;5033717;28;20394;-62
2023/10/10 06:32:30;;;;;;;128.82;56.53;;;;;;;14.60;100.00;101806.66;5027101;28;20400;-62
2023/10/10 06:35:27;;;;;;;112.18;53.22;;;;;;;14.63;100.00;101802.06;5045145;28;20091;-65
2023/10/10 06:37:52;;;;;;;124.55;54.35;;;;;;;14.68;100.00;101807.22;5045601;28;20033;-62
2023/10/10 06:40:29;;;;;;;112.00;54.42;;;;;;;14.74;100.00;101803.47;5045979;28;20025;-64
2023/10/10 06:42:55;;;;;;;120.18;55.47;;;;;;;14.81;100.00;101815.63;5045811;28;20056;-63
2023/10/10 06:45:24;;;;;;;117.53;55.22;;;;;;;14.87;100.00;101811.91;5043663;28;20491;-61
2023/10/10 06:47:51;;;;;;;121.85;56.38;;;;;;;14.84;100.00;101812.88;5045396;28;20021;-63
2023/10/10 06:50:23;;;;;;;113.50;55.03;;;;;;;14.94;100.00;101808.09;5045990;28;20143;-62
2023/10/10 06:52:52;;;;;;;111.88;55.10;;;;;;;15.05;100.00;101806.84;5047691;28;20028;-61
2023/10/10 06:55:22;;;;;;;115.00;55.03;;;;;;;15.07;100.00;101797.88;5048571;28;20066;-62
2023/10/10 06:57:59;;;;;;;109.72;52.40;;;;;;;15.11;100.00;101802.16;5047994;28;20032;-63
2023/10/10 07:00:29;;;;;;;110.30;52.38;;;;;;;15.15;100.00;101795.78;5049188;28;20017;-61
2023/10/10 07:02:59;;;;;;;100.35;52.60;;;;;;;15.28;100.00;101795.34;5049392;28;20104;-61
2023/10/10 07:05:27;;;;;;;99.63;52.50;;;;;;;15.29;100.00;101805.03;5048721;28;20025;-61
2023/10/10 07:07:59;;;;;;;96.88;51.97;;;;;;;15.33;100.00;101801.34;5049183;28;20530;-61
2023/10/10 07:10:36;;;;;;;110.72;51.72;;;;;;;15.39;100.00;101802.91;5049705;28;20394;-61
2023/10/10 07:13:03;;;;;;;85.78;48.42;;;;;;;15.44;100.00;101808.03;5049687;28;20033;-58
2023/10/10 07:15:35;;;;;;;89.05;49.08;;;;;;;15.53;100.00;101797.03;5049671;28;20087;-62
2023/10/10 07:18:14;;;;;;;92.93;48.60;;;;;;;15.56;100.00;101802.22;5048492;28;20059;-62
2023/10/10 07:23:24;;;;;;;89.18;48.05;;;;;;;15.58;100.00;101797.72;5048805;28;20039;-61
2023/10/10 07:25:59;;;;;;;88.47;47.47;;;;;;;15.71;100.00;101800.72;5048515;28;20025;-61
2023/10/10 07:28:27;;;;;;;82.28;46.40;;;;;;;15.76;100.00;101798.78;5033159;28;20026;-63
2023/10/10 07:30:54;;;;;;;74.07;44.38;;;;;;;15.85;100.00;101802.84;5027958;28;20112;-63
2023/10/10 07:33:23;;;;;;;77.05;43.47;;;;;;;15.90;100.00;101800.84;5027971;28;20388;-63
2023/10/10 07:35:55;;;;;;;73.88;43.95;;;;;;;15.88;100.00;101805.38;5026898;28;20030;-64
2023/10/10 07:38:30;;;;;;;65.70;40.50;;;;;;;15.96;100.00;101801.53;5027167;28;20052;-62
2023/10/10 07:40:55;;;;;;;71.32;42.60;;;;;;;15.91;100.00;101801.72;5026953;28;20041;-62
2023/10/10 07:43:26;;;;;;;66.95;39.88;;;;;;;15.98;100.00;101802.38;5027362;28;20387;-62
2023/10/10 07:45:54;;;;;;;64.65;39.22;;;;;;;16.04;100.00;101800.31;5026818;28;20044;-62
2023/10/10 07:50:48;;;;;;;66.32;40.13;;;;;;;16.04;100.00;101800.31;5065813;28;20120;-61
2023/10/10 07:53:15;;;;;;;67.50;40.67;;;;;;;16.06;100.00;101807.34;5067482;28;20025;-64
2023/10/10 07:55:53;;;;;;;67.03;39.95;;;;;;;16.10;100.00;101809.81;5064424;28;20029;-61
2023/10/10 07:58:23;;;;;;;62.53;38.38;;;;;;;16.27;100.00;101803.81;5048611;28;20049;-62
2023/10/10 08:00:51;;;;;;;62.53;35.85;;;;;;;16.35;100.00;101794.63;5047136;28;20040;-65
2023/10/10 08:03:19;;;;;;;61.75;37.40;;;;;;;16.33;100.00;101805.34;5047960;28;20044;-64
2023/10/10 08:05:48;;;;;;;60.47;38.77;;;;;;;16.45;100.00;101792.41;5030060;28;20032;-62
2023/10/10 08:08:17;;;;;;;55.85;36.25;;;;;;;16.50;100.00;101788.63;5046999;28;20283;-61
2023/10/10 08:10:49;;;;;;;60.63;37.05;;;;;;;16.59;100.00;101799.81;5047950;28;20434;-62
2023/10/10 08:13:15;;;;;;;54.95;36.58;;;;;;;16.64;100.00;101801.34;5029143;28;20079;-63
2023/10/10 08:15:50;;;;;;;58.33;37.15;;;;;;;16.74;100.00;101792.94;5026172;28;20029;-63
2023/10/10 08:23:27;;;;;;;52.33;34.17;;;;;;;17.02;100.00;101797.88;5028238;28;20487;-63
2023/10/10 08:25:53;;;;;;;55.67;35.10;;;;;;;17.14;100.00;101803.59;5027011;28;20029;-63
2023/10/10 08:28:21;;;;;;;55.55;34.70;;;;;;;17.26;100.00;101791.50;5039412;28;20074;-63
2023/10/10 08:30:47;;;;;;;51.83;33.55;;;;;;;17.38;100.00;101798.91;5047447;28;20029;-63
2023/10/10 08:33:12;;;;;;;59.35;35.28;;;;;;;17.43;100.00;101802.22;5046495;28;20024;-63
2023/10/10 08:35:38;;;;;;;54.95;34.70;;;;;;;17.39;100.00;101802.44;5045760;28;20423;-63
2023/10/10 08:38:07;;;;;;;50.10;32.53;;;;;;;17.56;100.00;101798.97;5046275;28;20049;-64
2023/10/10 08:40:36;;;;;;;50.53;33.47;;;;;;;17.68;100.00;101808.16;5046101;28;20076;-63
2023/10/10 08:43:03;;;;;;;49.25;29.83;;;;;;;17.74;100.00;101801.66;5047999;28;20057;-63
2023/10/10 08:45:39;;;;;;;56.17;32.88;;;;;;;17.67;100.00;101801.97;5047915;28;20028;-59
2023/10/10 08:48:12;;;;;;;54.75;33.55;;;;;;;17.87;100.00;101802.78;5046857;28;20391;-62
2023/10/10 08:50:41;;;;;;;44.33;30.48;;;;;;;17.98;100.00;101806.72;5046503;28;20036;-61
2023/10/10 08:53:12;;;;;;;48.80;29.92;;;;;;;18.19;100.00;101805.66;5046566;28;20025;-64
2023/10/10 08:55:38;;;;;;;51.15;29.65;;;;;;;18.38;100.00;101802.06;5028509;28;20029;-66
2023/10/10 08:58:07;;;;;;;50.25;28.98;;;;;;;18.56;100.00;101810.91;5028522;28;20051;-62
2023/10/10 09:00:33;;;;;;;47.35;28.77;;;;;;;18.71;100.00;101807.50;5046018;28;20028;-63
2023/10/10 09:02:58;;;;;;;46.17;29.50;;;;;;;18.83;100.00;101806.84;5047360;28;20463;-66
2023/10/10 09:05:24;;;;;;;42.67;28.90;;;;;;;18.77;100.00;101809.84;5045841;28;20033;-68
2023/10/10 09:07:54;;;;;;;46.03;27.65;;;;;;;18.77;100.00;101799.16;5045816;28;20387;-67
2023/10/10 09:10:28;;;;;;;44.65;28.65;;;;;;;18.65;100.00;101792.69;5045963;28;20317;-67
2023/10/10 09:12:58;;;;;;;42.92;26.88;;;;;;;18.63;100.00;101795.44;5043931;28;20045;-63
2023/10/10 09:15:24;;;;;;;44.25;26.83;;;;;;;18.76;100.00;101802.78;5046088;28;20029;-61
2023/10/10 09:17:55;;;;;;;37.97;25.98;;;;;;;18.85;100.00;101783.63;5046348;28;20041;-62
2023/10/10 09:20:31;;;;;;;46.33;25.75;;;;;;;18.91;100.00;101788.59;5050979;28;20102;-63
2023/10/10 09:23:11;;;;;;;43.80;25.75;;;;;;;18.98;100.00;101788.25;5056522;28;20482;-63
2023/10/10 09:28:21;;;;;;;41.88;25.95;;;;;;;19.08;100.00;101789.53;5052148;28;20044;-63
2023/10/10 09:30:58;;;;;;;47.22;25.65;;;;;;;19.21;100.00;101796.88;5055330;28;20228;-64
2023/10/10 09:36:08;;;;;;;39.85;24.75;;;;;;;19.49;100.00;101801.53;5051414;28;20037;-62
2023/10/10 09:38:36;;;;;;;38.42;22.75;;;;;;;19.62;100.00;101806.19;5049105;28;20451;-62
2023/10/10 09:41:29;;;;;;;34.47;22.13;;;;;;;19.71;100.00;101802.97;5052824;28;20706;-63
2023/10/10 09:49:44;;;;;;;36.90;23.63;;;;;;;19.84;100.00;101808.47;5039214;28;20556;-62
2023/10/10 09:55:02;;;;;;;36.03;22.60;;;;;;;19.99;100.00;101806.72;5045157;28;20110;-63
2023/10/10 09:57:29;;;;;;;36.90;22.73;;;;;;;20.02;100.00;101797.69;5045483;28;20044;-60
2023/10/10 09:59:56;;;;;;;33.42;20.70;;;;;;;20.05;100.00;101806.38;5045598;28;20021;-59
2023/10/10 10:02:40;;;;;;;33.08;21.10;;;;;;;19.86;100.00;101801.22;5028020;28;20017;-62
2023/10/10 10:05:13;;;;;;;35.83;22.42;;;;;;;19.78;100.00;101798.13;5030523;28;20044;-62
2023/10/10 10:08:21;;;;;;;37.28;21.65;;;;;;;19.77;100.00;101797.25;5046194;28;20094;-61
2023/10/10 10:10:56;;;;;;;38.13;22.38;;;;;;;19.81;100.00;101801.47;4945123;29;20031;-62
2023/10/10 10:14:12;;;;;;;42.95;23.10;;;;;;;19.74;100.00;101799.28;5033302;28;20057;-63
2023/10/10 10:17:19;;;;;;;34.72;23.00;;;;;;;19.76;100.00;101805.38;4945277;29;20043;-62
2023/10/10 10:19:47;;;;;;;38.28;22.25;;;;;;;19.88;100.00;101802.00;5036233;28;20036;-64
2023/10/10 10:22:21;;;;;;;31.05;21.33;;;;;;;19.97;100.00;101808.63;5045072;28;20029;-62
2023/10/10 10:24:46;;;;;;;32.97;21.23;;;;;;;20.13;100.00;101807.72;5047215;28;20017;-65
2023/10/10 10:29:55;;;;;;;33.00;20.27;;;;;;;20.33;100.00;101806.56;5049286;28;20025;-64
2023/10/10 10:32:24;;;;;;;33.03;21.02;;;;;;;20.48;100.00;101803.88;5048557;28;20397;-60
2023/10/10 10:34:55;;;;;;;32.92;21.33;;;;;;;20.55;100.00;101806.09;5049108;28;20019;-63
2023/10/10 10:37:23;;;;;;;35.17;21.15;;;;;;;20.62;100.00;101803.91;5049150;28;20104;-64
2023/10/10 10:42:38;;;;;;;30.90;19.50;;;;;;;20.82;100.00;101799.13;5048910;28;20041;-64
2023/10/10 10:45:24;;;;;;;31.73;20.67;;;;;;;20.82;100.00;101799.13;5048696;28;20025;-64
2023/10/10 10:47:54;;;;;;;32.08;19.67;;;;;;;20.98;100.00;101806.25;5026255;28;20384;-64
2023/10/10 10:50:28;;;;;;;32.60;19.67;;;;;;;21.14;100.00;101796.28;5029497;28;20029;-64
2023/10/10 10:52:58;;;;;;;31.38;20.55;;;;;;;21.15;100.00;101798.00;5040024;28;20025;-63
2023/10/10 10:55:27;;;;;;;39.58;20.80;;;;;;;21.26;100.00;101797.31;5031191;28;20021;-65
2023/10/10 10:58:06;;;;;;;33.42;19.15;;;;;;;21.34;100.00;101803.03;5046730;28;20021;-62
2023/10/10 11:03:25;;;;;;;29.20;19.27;;;;;;;21.73;100.00;101791.59;5028433;28;20484;-64
2023/10/10 11:05:57;;;;;;;33.33;18.58;;;;;;;21.90;100.00;101790.50;5042326;28;20032;-64
2023/10/10 11:08:52;;;;;;;31.10;20.30;;;;;;;22.15;100.00;101788.81;5031823;28;21127;-62
2023/10/10 11:14:10;;;;;;;35.55;19.05;;;;;;;22.46;100.00;101773.28;4982294;28;21084;-62
2023/10/10 11:16:45;;;;;;;35.28;17.92;;;;;;;22.63;100.00;101776.63;5022033;28;20693;-65
2023/10/10 11:21:53;;;;;;;26.48;17.35;;;;;;;22.88;100.00;101768.66;5046933;28;20476;-63
2023/10/10 11:24:29;;;;;;;27.60;16.98;;;;;;;22.89;100.00;101760.47;5042690;28;20036;-63
2023/10/10 11:32:29;;;;;;;33.00;18.00;;;;;;;22.76;100.00;101757.84;5040717;28;20056;-65
2023/10/10 11:37:45;;;;;;;31.30;16.98;;;;;;;23.01;98.78;101752.50;5043684;28;20456;-62
2023/10/10 11:40:31;;;;;;;27.13;16.77;;;;;;;22.93;97.45;101756.59;5026076;28;20040;-64
2023/10/10 11:43:04;;;;;;;27.13;16.77;;;;;;;23.03;98.86;101750.56;5042112;28;20498;-66
2023/10/10 11:45:30;;;;;;;34.75;16.73;;;;;;;22.77;100.00;101740.72;5025419;28;20448;-62
2023/10/10 11:48:10;;;;;;;28.35;16.35;;;;;;;22.96;99.50;101737.56;5044257;28;20017;-61
2023/10/10 11:50:51;;;;;;;28.42;16.23;;;;;;;23.29;97.51;101740.56;5041799;28;20262;-63
2023/10/10 11:53:24;;;;;;;25.92;16.23;;;;;;;23.76;95.51;101722.81;5040803;28;20102;-64
2023/10/10 11:55:52;;;;;;;24.55;14.90;;;;;;;24.31;90.93;101724.91;5044712;28;20029;-66
2023/10/10 11:58:17;;;;;;;25.33;15.40;;;;;;;24.80;85.38;101724.69;5051765;28;20091;-66
2023/10/10 12:00:59;;;;;;;23.92;14.75;;;;;;;25.64;80.44;101725.94;5047347;28;20300;-65
2023/10/10 12:06:17;;;;;;;22.27;12.60;;;;;;;26.40;71.82;101720.47;5039316;28;20132;-65
2023/10/10 12:08:50;;;;;;;17.45;12.43;;;;;;;26.61;72.08;101715.00;5044910;28;20375;-64
2023/10/10 12:11:20;;;;;;;25.33;14.30;;;;;;;27.19;67.60;101720.69;5044781;28;20025;-63
2023/10/10 12:13:45;;;;;;;17.10;11.68;;;;;;;27.71;64.73;101716.84;5046975;28;20068;-63
2023/10/10 12:16:11;;;;;;;20.65;12.88;;;;;;;27.85;63.75;101721.84;5050998;28;20575;-61
2023/10/10 12:18:52;;;;;;;21.13;14.07;;;;;;;27.27;66.54;101720.81;5055188;28;20025;-62
2023/10/10 12:21:21;;;;;;;23.85;13.07;;;;;;;28.10;61.30;101714.06;5057091;28;20055;-62
2023/10/10 12:23:47;;;;;;;17.38;12.75;;;;;;;27.91;63.55;101706.88;5040077;28;20029;-62
2023/10/10 12:26:13;;;;;;;16.92;11.68;;;;;;;28.46;62.32;101704.41;5052624;28;20442;-63
2023/10/10 12:28:38;;;;;;;24.50;12.70;;;;;;;28.42;59.06;101697.59;5044001;28;20037;-64
2023/10/10 12:31:15;;;;;;;18.35;12.75;;;;;;;27.06;64.67;101718.25;5048525;28;20052;-63
2023/10/10 12:33:41;;;;;;;21.00;12.68;;;;;;;26.96;65.12;101699.25;5049163;28;20029;-62
2023/10/10 12:36:09;;;;;;;20.63;13.70;;;;;;;26.42;69.24;101694.13;5019098;28;20546;-65
2023/10/10 12:38:34;;;;;;;18.13;12.88;;;;;;;26.70;67.94;101697.94;5046050;28;20352;-64
2023/10/10 12:41:00;;;;;;;20.48;12.82;;;;;;;27.29;66.15;101701.75;5055409;28;20104;-63
2023/10/10 12:43:25;;;;;;;18.27;10.82;;;;;;;27.88;62.94;101693.63;5050007;28;20024;-64
2023/10/10 12:45:51;;;;;;;20.75;12.52;;;;;;;28.17;61.37;101691.81;5033787;28;20041;-64
2023/10/10 12:48:20;;;;;;;20.42;12.55;;;;;;;28.35;59.89;101692.75;5036872;28;20035;-64
2023/10/10 12:50:54;;;;;;;20.30;12.15;;;;;;;29.23;57.67;101689.69;5039238;28;20390;-63
2023/10/10 12:53:21;;;;;;;18.05;12.18;;;;;;;28.57;60.73;101685.25;5040689;28;20029;-63
2023/10/10 12:55:51;;;;;;;19.05;12.02;;;;;;;28.44;60.30;101682.88;5039067;28;20117;-63
2023/10/10 12:58:19;;;;;;;15.23;11.57;;;;;;;28.70;58.36;101684.88;5039626;28;20454;-63
2023/10/10 13:00:51;;;;;;;20.70;12.10;;;;;;;28.44;58.13;101688.28;5042546;28;20025;-64
2023/10/10 13:03:17;;;;;;;23.55;12.52;;;;;;;28.20;59.68;101689.66;5034331;28;20438;-64
2023/10/10 13:05:47;;;;;;;19.48;11.18;;;;;;;28.22;60.19;101684.94;5043907;28;20337;-64
2023/10/10 13:08:14;;;;;;;20.00;11.38;;;;;;;28.43;59.26;101670.34;5045833;28;20454;-64
2023/10/10 13:10:41;;;;;;;20.92;11.20;;;;;;;28.58;59.60;101677.94;5045809;28;20031;-64
2023/10/10 13:13:10;;;;;;;23.00;12.75;;;;;;;28.02;62.98;101681.44;5047331;28;20356;-63
2023/10/10 13:15:50;;;;;;;27.70;12.48;;;;;;;29.26;58.34;101684.78;5054268;28;20384;-61
2023/10/10 13:18:23;;;;;;;18.38;11.95;;;;;;;29.39;56.09;101683.53;5024819;28;20025;-63
2023/10/10 13:20:51;;;;;;;23.15;11.07;;;;;;;29.87;54.83;101680.53;5043522;28;20036;-65
2023/10/10 13:23:18;;;;;;;16.35;10.07;;;;;;;30.52;51.57;101678.31;5047491;28;20032;-64
2023/10/10 13:25:44;;;;;;;17.30;10.80;;;;;;;30.99;49.24;101681.50;5053106;28;20475;-64
2023/10/10 13:28:11;;;;;;;18.48;9.88;;;;;;;31.24;48.72;101685.09;5061032;28;20020;-62
2023/10/10 13:30:41;;;;;;;20.38;9.77;;;;;;;30.60;49.82;101670.19;5061098;28;20029;-62
2023/10/10 13:33:07;;;;;;;14.85;9.13;;;;;;;31.24;48.42;101676.09;5029067;28;20487;-62
2023/10/10 15:23:23;;;;;;;20.42;9.05;;;;;;;25.94;59.58;101567.72;5063622;28;20932;-66
2023/10/10 15:25:55;;;;;;;16.13;8.63;;;;;;;26.55;57.74;101564.22;5044471;28;20048;-64
2023/10/10 15:28:23;;;;;;;17.20;8.40;;;;;;;26.82;56.98;101568.91;5042685;28;20029;-64
2023/10/10 15:30:49;;;;;;;15.70;9.13;;;;;;;26.80;56.87;101561.94;5041799;28;20017;-64
2023/10/10 15:33:18;;;;;;;20.50;9.48;;;;;;;26.53;57.95;101555.38;5043272;28;20500;-65
2023/10/10 15:35:46;;;;;;;15.95;9.20;;;;;;;26.39;58.37;101554.78;5044164;28;20434;-65
2023/10/10 15:38:12;;;;;;;18.88;9.88;;;;;;;25.92;60.46;101547.25;5043190;28;20495;-66
2023/10/10 15:40:43;;;;;;;18.02;10.40;;;;;;;25.50;61.20;101546.34;5042576;28;20029;-65
2023/10/10 15:43:12;;;;;;;24.95;11.43;;;;;;;24.69;66.12;101540.50;5044462;28;20025;-63
2023/10/10 15:45:47;;;;;;;22.30;11.98;;;;;;;24.45;68.86;101549.63;5043819;28;20108;-62
2023/10/10 15:48:22;;;;;;;18.08;11.05;;;;;;;24.22;71.00;101538.03;5043284;28;20032;-64
2023/10/10 15:50:57;;;;;;;22.95;11.32;;;;;;;24.05;72.25;101536.69;5043833;28;20025;-63
2023/10/10 15:53:25;;;;;;;21.52;10.85;;;;;;;23.81;74.91;101541.22;5043395;28;20025;-63
2023/10/10 15:56:11;;;;;;;20.85;11.18;;;;;;;23.73;76.07;101533.78;5043581;28;20440;-64
2023/10/10 15:58:43;;;;;;;16.83;10.98;;;;;;;23.55;78.35;101521.78;5043830;28;20384;-63